Time;durP1;ratioP1;P1;durP2;ratioP2;P2;SDS_P1;SDS_P2;PMS_P1;PMS_P2;Temp;Humidity;BMP_temperature;BMP_pressure;BME280_temperature;BME280_humidity;BME280_pressure;Samples;Min_cycle;Max_cycle;Signal;HPM_P1;HPM_P2
2023/08/06 00:00:01;;;;;;;9.30;4.80;;;;;;;;;;5051725;28;20048;-76
2023/08/06 00:02:27;;;;;;;6.00;4.43;;;;;;;;;;5053940;28;20032;-75
2023/08/06 00:04:53;;;;;;;6.65;5.05;;;;;;;;;;5056062;28;20029;-76
2023/08/06 00:07:19;;;;;;;7.15;4.85;;;;;;;;;;5056346;28;20033;-75
2023/08/06 00:09:45;;;;;;;6.47;4.82;;;;;;;;;;5055956;28;20032;-76
2023/08/06 00:12:11;;;;;;;6.10;4.53;;;;;;;;;;5055979;28;20025;-76
2023/08/06 00:14:37;;;;;;;6.28;4.88;;;;;;;;;;5055840;28;20029;-75
2023/08/06 00:17:03;;;;;;;6.15;4.97;;;;;;;;;;5055765;28;20119;-76
2023/08/06 00:19:29;;;;;;;7.93;4.90;;;;;;;;;;5054898;28;20049;-76
2023/08/06 00:21:55;;;;;;;6.43;4.53;;;;;;;;;;5055725;28;20357;-76
2023/08/06 00:24:21;;;;;;;6.53;4.90;;;;;;;;;;5055790;28;20463;-75
2023/08/06 00:26:47;;;;;;;6.70;5.40;;;;;;;;;;5055742;28;20114;-76
2023/08/06 00:29:13;;;;;;;6.05;5.18;;;;;;;;;;5055746;28;20032;-76
2023/08/06 00:31:39;;;;;;;7.63;5.50;;;;;;;;;;5054212;28;20474;-75
2023/08/06 00:34:05;;;;;;;10.55;5.40;;;;;;;;;;5055573;28;20100;-75
2023/08/06 00:36:31;;;;;;;8.10;5.30;;;;;;;;;;5055392;28;20112;-75
2023/08/06 00:38:57;;;;;;;8.13;5.43;;;;;;;;;;5055422;28;20418;-75
2023/08/06 00:41:23;;;;;;;8.27;5.60;;;;;;;;;;5055603;28;20020;-75
2023/08/06 00:43:49;;;;;;;7.28;5.57;;;;;;;;;;5055367;28;20031;-76
2023/08/06 00:46:15;;;;;;;6.85;5.38;;;;;;;;;;5055427;28;20029;-76
2023/08/06 00:48:42;;;;;;;8.05;6.28;;;;;;;;;;5055428;28;20100;-75
2023/08/06 00:51:10;;;;;;;7.68;5.97;;;;;;;;;;5055436;28;20409;-76
2023/08/06 00:53:36;;;;;;;9.45;5.93;;;;;;;;;;5055243;28;20037;-76
2023/08/06 00:56:02;;;;;;;9.32;6.57;;;;;;;;;;5055433;28;20055;-75
2023/08/06 00:58:28;;;;;;;8.63;6.35;;;;;;;;;;5055246;28;20017;-75
2023/08/06 01:00:54;;;;;;;6.65;5.63;;;;;;;;;;5055333;28;20104;-75
2023/08/06 01:03:20;;;;;;;7.80;5.80;;;;;;;;;;5054944;28;20021;-75
2023/08/06 01:05:46;;;;;;;10.10;6.55;;;;;;;;;;5055068;28;20033;-75
2023/08/06 01:08:31;;;;;;;11.68;6.97;;;;;;;;;;5054979;28;20053;-75
2023/08/06 01:11:06;;;;;;;11.60;7.38;;;;;;;;;;5054872;28;20037;-75
2023/08/06 01:13:38;;;;;;;12.23;7.43;;;;;;;;;;5054890;28;20032;-75
2023/08/06 01:16:05;;;;;;;13.40;7.95;;;;;;;;;;5054696;28;20024;-76
2023/08/06 01:18:31;;;;;;;10.38;7.53;;;;;;;;;;5054481;28;20037;-76
2023/08/06 01:20:57;;;;;;;16.42;9.43;;;;;;;;;;5054735;28;20461;-76
2023/08/06 01:23:24;;;;;;;13.95;9.23;;;;;;;;;;5054688;28;20031;-76
2023/08/06 01:25:56;;;;;;;14.65;10.32;;;;;;;;;;5054608;28;20024;-75
2023/08/06 01:28:32;;;;;;;14.93;9.10;;;;;;;;;;5046508;28;20079;-76
2023/08/06 01:31:00;;;;;;;16.40;10.07;;;;;;;;;;5036963;28;20108;-75
2023/08/06 01:33:28;;;;;;;15.40;10.02;;;;;;;;;;5054643;28;20040;-75
2023/08/06 01:35:54;;;;;;;15.88;10.05;;;;;;;;;;5054508;28;20044;-75
2023/08/06 01:38:20;;;;;;;17.38;11.27;;;;;;;;;;5054421;28;20021;-75
2023/08/06 01:40:46;;;;;;;14.02;8.73;;;;;;;;;;5046019;28;20065;-75
2023/08/06 01:43:12;;;;;;;16.98;10.95;;;;;;;;;;5051552;28;20511;-75
2023/08/06 01:45:39;;;;;;;14.82;10.23;;;;;;;;;;5054156;28;20044;-75
2023/08/06 01:48:05;;;;;;;21.10;11.05;;;;;;;;;;5049343;28;20603;-75
2023/08/06 01:50:31;;;;;;;16.92;10.90;;;;;;;;;;5034201;28;20527;-76
2023/08/06 01:52:57;;;;;;;16.90;10.65;;;;;;;;;;5034214;28;20030;-75
2023/08/06 01:55:23;;;;;;;16.42;10.60;;;;;;;;;;5034208;28;20100;-76
2023/08/06 01:57:49;;;;;;;15.45;10.35;;;;;;;;;;5047335;28;20501;-75
2023/08/06 02:00:15;;;;;;;16.00;10.90;;;;;;;;;;5034044;28;20022;-76
2023/08/06 02:02:41;;;;;;;16.35;10.93;;;;;;;;;;5034029;28;20108;-76
2023/08/06 02:05:07;;;;;;;15.55;11.00;;;;;;;;;;5034062;28;20104;-76
2023/08/06 02:07:33;;;;;;;21.23;11.50;;;;;;;;;;5035507;28;20034;-76
2023/08/06 02:09:59;;;;;;;18.38;11.02;;;;;;;;;;5045753;28;20083;-76
2023/08/06 02:12:25;;;;;;;15.52;11.05;;;;;;;;;;5048740;28;20726;-76
2023/08/06 02:14:51;;;;;;;15.40;10.40;;;;;;;;;;5053840;28;20048;-76
2023/08/06 02:17:23;;;;;;;16.83;10.63;;;;;;;;;;5053696;28;20076;-76
2023/08/06 02:19:49;;;;;;;16.20;10.20;;;;;;;;;;5053267;28;20132;-76
2023/08/06 02:22:15;;;;;;;18.80;11.85;;;;;;;;;;5053747;28;20104;-76
2023/08/06 02:24:41;;;;;;;15.00;10.70;;;;;;;;;;5053389;28;20098;-76
2023/08/06 02:27:07;;;;;;;15.13;10.65;;;;;;;;;;5053496;28;20094;-76
2023/08/06 02:29:33;;;;;;;16.40;10.48;;;;;;;;;;5053742;28;20029;-76
2023/08/06 02:32:01;;;;;;;15.82;10.82;;;;;;;;;;5053336;28;20036;-76
2023/08/06 02:34:27;;;;;;;16.77;10.00;;;;;;;;;;5053539;28;20052;-76
2023/08/06 02:36:53;;;;;;;16.80;10.43;;;;;;;;;;5053203;28;20060;-76
2023/08/06 02:39:19;;;;;;;16.38;11.15;;;;;;;;;;5053148;28;20025;-75
2023/08/06 02:41:45;;;;;;;24.35;10.88;;;;;;;;;;5053194;28;20092;-76
2023/08/06 02:44:11;;;;;;;17.58;10.88;;;;;;;;;;5053171;28;20100;-76
2023/08/06 02:46:37;;;;;;;14.65;10.45;;;;;;;;;;5053160;28;20033;-76
2023/08/06 02:49:03;;;;;;;16.33;10.77;;;;;;;;;;5039784;28;20029;-76
2023/08/06 02:51:29;;;;;;;14.95;10.32;;;;;;;;;;5053029;28;20021;-76
2023/08/06 02:53:55;;;;;;;15.45;10.30;;;;;;;;;;5053111;28;20029;-76
2023/08/06 02:56:21;;;;;;;15.35;10.82;;;;;;;;;;5052949;28;20044;-75
2023/08/06 02:58:48;;;;;;;14.40;10.23;;;;;;;;;;5052883;28;20029;-76
2023/08/06 03:01:15;;;;;;;14.52;9.98;;;;;;;;;;5053013;28;20103;-75
2023/08/06 03:03:41;;;;;;;14.65;9.70;;;;;;;;;;5053214;28;20025;-76
2023/08/06 03:06:07;;;;;;;17.05;11.10;;;;;;;;;;5052778;28;20036;-76
2023/08/06 03:08:33;;;;;;;15.93;9.23;;;;;;;;;;5052927;28;20032;-76
2023/08/06 03:10:59;;;;;;;13.60;8.98;;;;;;;;;;5052678;28;20021;-76
2023/08/06 03:13:25;;;;;;;14.07;9.25;;;;;;;;;;5052645;28;20380;-76
2023/08/06 03:15:55;;;;;;;14.05;9.48;;;;;;;;;;5052616;28;20099;-76
2023/08/06 03:18:21;;;;;;;14.88;10.32;;;;;;;;;;5052411;28;20180;-76
2023/08/06 03:20:47;;;;;;;13.55;9.07;;;;;;;;;;5052601;28;20476;-76
2023/08/06 03:23:14;;;;;;;12.23;8.77;;;;;;;;;;5052504;28;20095;-76
2023/08/06 03:25:40;;;;;;;12.32;8.73;;;;;;;;;;5052423;28;20024;-76
2023/08/06 03:28:06;;;;;;;18.05;10.25;;;;;;;;;;5052437;28;20471;-76
2023/08/06 03:30:32;;;;;;;13.68;9.80;;;;;;;;;;5052353;28;20033;-76
2023/08/06 03:32:58;;;;;;;13.48;9.25;;;;;;;;;;5052385;28;20483;-75
2023/08/06 03:35:24;;;;;;;13.38;9.05;;;;;;;;;;5052215;28;20028;-75
2023/08/06 03:37:50;;;;;;;14.50;10.07;;;;;;;;;;5051457;28;20037;-76
2023/08/06 03:40:16;;;;;;;13.60;9.68;;;;;;;;;;5052418;28;20082;-76
2023/08/06 03:42:42;;;;;;;14.35;10.45;;;;;;;;;;5052231;28;20421;-75
2023/08/06 03:45:08;;;;;;;14.38;10.23;;;;;;;;;;5052220;28;20116;-76
2023/08/06 03:47:34;;;;;;;14.45;9.90;;;;;;;;;;5052337;28;20104;-76
2023/08/06 03:50:00;;;;;;;15.02;10.35;;;;;;;;;;5052482;28;20029;-75
2023/08/06 03:52:26;;;;;;;13.93;9.70;;;;;;;;;;5052073;28;20025;-75
2023/08/06 03:54:52;;;;;;;16.17;10.07;;;;;;;;;;5052237;28;20047;-76
2023/08/06 03:57:18;;;;;;;14.73;10.43;;;;;;;;;;5052010;28;20047;-76
2023/08/06 03:59:44;;;;;;;14.82;10.60;;;;;;;;;;5052159;28;20032;-75
2023/08/06 04:02:10;;;;;;;15.90;9.70;;;;;;;;;;5036068;28;20423;-76
2023/08/06 04:04:38;;;;;;;14.65;10.60;;;;;;;;;;5032122;28;20033;-76
2023/08/06 04:07:04;;;;;;;13.20;10.23;;;;;;;;;;5032024;28;20029;-76
2023/08/06 04:09:30;;;;;;;13.15;9.20;;;;;;;;;;5032365;28;20041;-76
2023/08/06 04:11:58;;;;;;;14.98;10.45;;;;;;;;;;5032196;28;20029;-76
2023/08/06 04:14:24;;;;;;;13.10;8.88;;;;;;;;;;5032207;28;20087;-75
2023/08/06 04:16:50;;;;;;;13.93;9.85;;;;;;;;;;5032139;28;20029;-75
2023/08/06 04:19:16;;;;;;;14.40;9.45;;;;;;;;;;5031663;28;20072;-76
2023/08/06 04:21:42;;;;;;;12.90;9.35;;;;;;;;;;5032208;28;20045;-76
2023/08/06 04:24:08;;;;;;;14.77;9.00;;;;;;;;;;5042357;28;20551;-76
2023/08/06 04:26:34;;;;;;;14.98;9.68;;;;;;;;;;5051933;28;20033;-76
2023/08/06 04:29:00;;;;;;;14.00;9.20;;;;;;;;;;5051887;28;20024;-76
2023/08/06 04:31:26;;;;;;;15.52;10.18;;;;;;;;;;5051724;28;20615;-76
2023/08/06 04:33:52;;;;;;;14.02;10.07;;;;;;;;;;5051512;28;20513;-75
2023/08/06 04:36:18;;;;;;;14.52;9.80;;;;;;;;;;5051452;28;20099;-75
2023/08/06 04:38:47;;;;;;;15.95;9.38;;;;;;;;;;5051775;28;20033;-76
2023/08/06 04:41:13;;;;;;;15.80;10.23;;;;;;;;;;5051659;28;20414;-76
2023/08/06 04:43:39;;;;;;;13.70;9.63;;;;;;;;;;5051699;28;20360;-76
2023/08/06 04:46:06;;;;;;;12.13;9.23;;;;;;;;;;5050370;28;20033;-76
2023/08/06 04:48:32;;;;;;;13.65;9.73;;;;;;;;;;5053497;28;20014;-76
2023/08/06 04:50:58;;;;;;;18.17;10.25;;;;;;;;;;5055333;28;20166;-76
2023/08/06 04:53:24;;;;;;;16.42;11.30;;;;;;;;;;5055321;28;20100;-76
2023/08/06 04:55:50;;;;;;;13.57;9.77;;;;;;;;;;5055121;28;20029;-76
2023/08/06 04:58:16;;;;;;;13.70;9.15;;;;;;;;;;5055186;28;20036;-75
2023/08/06 05:00:42;;;;;;;12.40;8.93;;;;;;;;;;5055149;28;20033;-75
2023/08/06 05:03:08;;;;;;;14.15;9.23;;;;;;;;;;5055086;28;20031;-76
2023/08/06 05:05:34;;;;;;;13.00;8.93;;;;;;;;;;5055166;28;20096;-75
2023/08/06 05:08:00;;;;;;;12.40;8.20;;;;;;;;;;5055257;28;20029;-76
2023/08/06 05:10:26;;;;;;;11.77;8.90;;;;;;;;;;5055011;28;20040;-76
2023/08/06 05:12:53;;;;;;;10.73;8.60;;;;;;;;;;5055039;28;20420;-75
2023/08/06 05:15:19;;;;;;;14.77;9.38;;;;;;;;;;5054860;28;20021;-75
2023/08/06 05:17:45;;;;;;;13.77;9.45;;;;;;;;;;5055036;28;20056;-76
2023/08/06 05:20:11;;;;;;;13.02;9.07;;;;;;;;;;5054267;28;20056;-76
2023/08/06 05:22:37;;;;;;;13.35;8.88;;;;;;;;;;5054766;28;20021;-76
2023/08/06 05:25:03;;;;;;;12.98;9.68;;;;;;;;;;5054653;28;20095;-76
2023/08/06 05:27:29;;;;;;;12.55;9.25;;;;;;;;;;5054908;28;20035;-76
2023/08/06 05:29:56;;;;;;;11.85;8.65;;;;;;;;;;5054721;28;20100;-76
2023/08/06 05:32:22;;;;;;;12.05;9.63;;;;;;;;;;5054455;28;20113;-75
2023/08/06 05:34:48;;;;;;;11.80;8.60;;;;;;;;;;5054297;28;20029;-75
2023/08/06 05:37:14;;;;;;;12.02;8.63;;;;;;;;;;5054371;28;20337;-75
2023/08/06 05:39:40;;;;;;;13.30;8.93;;;;;;;;;;5053524;28;20025;-74
2023/08/06 05:42:06;;;;;;;11.43;8.48;;;;;;;;;;5054350;28;20367;-75
2023/08/06 05:44:33;;;;;;;12.90;8.40;;;;;;;;;;5054621;28;20025;-75
2023/08/06 05:46:59;;;;;;;11.93;8.38;;;;;;;;;;5047506;28;20452;-74
2023/08/06 05:49:25;;;;;;;11.25;9.13;;;;;;;;;;5039808;28;20021;-75
2023/08/06 05:51:53;;;;;;;13.45;8.30;;;;;;;;;;5034087;28;20025;-76
2023/08/06 05:54:19;;;;;;;10.90;8.88;;;;;;;;;;5034331;28;20041;-76
2023/08/06 05:56:45;;;;;;;10.00;8.18;;;;;;;;;;5034097;28;20109;-75
2023/08/06 05:59:11;;;;;;;11.85;9.07;;;;;;;;;;5033563;28;20509;-75
2023/08/06 06:01:37;;;;;;;11.77;8.10;;;;;;;;;;5053694;28;20033;-75
2023/08/06 06:04:03;;;;;;;13.98;9.10;;;;;;;;;;5053930;28;20037;-75
2023/08/06 06:06:29;;;;;;;12.68;8.98;;;;;;;;;;5053788;28;20061;-75
2023/08/06 06:08:55;;;;;;;12.48;8.98;;;;;;;;;;5053858;28;20079;-75
2023/08/06 06:11:22;;;;;;;12.18;8.88;;;;;;;;;;5053766;28;20720;-75
2023/08/06 06:13:52;;;;;;;13.32;9.30;;;;;;;;;;5054055;28;20029;-75
2023/08/06 06:16:18;;;;;;;14.25;8.60;;;;;;;;;;5053703;28;20033;-75
2023/08/06 06:18:44;;;;;;;11.45;9.02;;;;;;;;;;5052304;28;20064;-76
2023/08/06 06:21:10;;;;;;;11.98;8.60;;;;;;;;;;5053764;28;20032;-75
2023/08/06 06:23:36;;;;;;;13.23;9.25;;;;;;;;;;5053656;28;20017;-76
2023/08/06 06:26:02;;;;;;;11.63;8.98;;;;;;;;;;5053521;28;20035;-76
2023/08/06 06:28:28;;;;;;;12.68;9.23;;;;;;;;;;5053507;28;20099;-76
2023/08/06 06:31:00;;;;;;;11.25;7.75;;;;;;;;;;5053442;28;20345;-75
2023/08/06 06:33:26;;;;;;;11.57;8.82;;;;;;;;;;5053667;28;20028;-75
2023/08/06 06:35:52;;;;;;;14.40;9.65;;;;;;;;;;5053210;28;20029;-75
2023/08/06 06:38:18;;;;;;;12.00;9.07;;;;;;;;;;5053268;28;20029;-75
2023/08/06 06:40:44;;;;;;;11.07;8.00;;;;;;;;;;5053374;28;20574;-76
2023/08/06 06:43:10;;;;;;;11.65;8.52;;;;;;;;;;5053139;28;20021;-75
2023/08/06 06:45:36;;;;;;;12.25;8.45;;;;;;;;;;5053186;28;20539;-75
2023/08/06 06:48:02;;;;;;;11.85;9.23;;;;;;;;;;5062670;28;20020;-76
2023/08/06 06:50:28;;;;;;;11.27;8.52;;;;;;;;;;5071518;28;20052;-76
2023/08/06 06:52:54;;;;;;;10.95;8.13;;;;;;;;;;5052840;28;20042;-76
2023/08/06 06:55:20;;;;;;;11.68;9.18;;;;;;;;;;5052845;28;20120;-76
2023/08/06 06:57:46;;;;;;;12.10;9.30;;;;;;;;;;5051503;28;20515;-76
2023/08/06 07:00:12;;;;;;;9.88;7.78;;;;;;;;;;5052717;28;20028;-76
2023/08/06 07:02:39;;;;;;;12.10;8.57;;;;;;;;;;5052942;28;20437;-76
2023/08/06 07:05:07;;;;;;;12.73;9.23;;;;;;;;;;5053058;28;20120;-76
2023/08/06 07:07:33;;;;;;;11.73;9.00;;;;;;;;;;5052706;28;20063;-76
2023/08/06 07:09:59;;;;;;;12.43;9.55;;;;;;;;;;5052749;28;20419;-76
2023/08/06 07:12:25;;;;;;;9.70;8.00;;;;;;;;;;5052620;28;20128;-76
2023/08/06 07:14:51;;;;;;;9.55;8.20;;;;;;;;;;5052674;28;20387;-75
2023/08/06 07:17:17;;;;;;;10.18;7.95;;;;;;;;;;5052497;28;20043;-76
2023/08/06 07:19:43;;;;;;;10.57;8.20;;;;;;;;;;5052636;28;20052;-76
2023/08/06 07:22:09;;;;;;;9.80;8.32;;;;;;;;;;5052489;28;20092;-76
2023/08/06 07:24:35;;;;;;;10.75;8.48;;;;;;;;;;5052579;28;20534;-76
2023/08/06 07:27:01;;;;;;;8.32;6.90;;;;;;;;;;5052528;28;20536;-76
2023/08/06 07:29:27;;;;;;;9.27;7.97;;;;;;;;;;5052571;28;20276;-76
2023/08/06 07:31:53;;;;;;;9.90;8.00;;;;;;;;;;5052143;28;20081;-75
2023/08/06 07:34:19;;;;;;;11.05;7.75;;;;;;;;;;5051981;28;20045;-75
2023/08/06 07:36:46;;;;;;;8.88;7.03;;;;;;;;;;5052075;28;20036;-75
2023/08/06 07:39:12;;;;;;;10.48;7.95;;;;;;;;;;5046486;28;20013;-76
2023/08/06 07:41:38;;;;;;;9.27;8.07;;;;;;;;;;5045079;28;20025;-75
2023/08/06 07:44:05;;;;;;;9.10;7.72;;;;;;;;;;5052603;28;20419;-76
2023/08/06 07:46:31;;;;;;;9.23;7.57;;;;;;;;;;5052132;28;20033;-76
2023/08/06 07:48:57;;;;;;;8.82;7.53;;;;;;;;;;5046737;28;20068;-75
2023/08/06 07:51:23;;;;;;;8.63;7.72;;;;;;;;;;5047792;28;20429;-76
2023/08/06 07:53:49;;;;;;;9.20;7.75;;;;;;;;;;5042433;28;20060;-76
2023/08/06 07:56:16;;;;;;;9.35;7.97;;;;;;;;;;5045641;28;20025;-76
2023/08/06 07:58:42;;;;;;;8.30;7.28;;;;;;;;;;5036224;28;20026;-75
2023/08/06 08:01:08;;;;;;;10.13;7.13;;;;;;;;;;5036632;28;20075;-77
2023/08/06 08:03:34;;;;;;;8.73;7.80;;;;;;;;;;5051957;28;20075;-77
2023/08/06 08:06:00;;;;;;;12.07;8.05;;;;;;;;;;5051847;28;20017;-76
2023/08/06 08:08:26;;;;;;;9.52;7.82;;;;;;;;;;5040173;28;20025;-76
2023/08/06 08:10:52;;;;;;;8.57;7.28;;;;;;;;;;5036304;28;20025;-76
2023/08/06 08:13:18;;;;;;;8.43;7.20;;;;;;;;;;5057476;28;20021;-77
2023/08/06 08:15:44;;;;;;;11.35;7.07;;;;;;;;;;5041119;28;20028;-76
2023/08/06 08:18:10;;;;;;;7.70;6.88;;;;;;;;;;5043447;28;20020;-76
2023/08/06 08:20:36;;;;;;;8.43;6.57;;;;;;;;;;5039056;28;20338;-76
2023/08/06 08:23:02;;;;;;;9.05;7.80;;;;;;;;;;5033024;28;20033;-76
2023/08/06 08:25:29;;;;;;;7.95;6.95;;;;;;;;;;5053728;28;20051;-76
2023/08/06 08:27:55;;;;;;;8.07;6.45;;;;;;;;;;5055545;28;20090;-76
2023/08/06 08:30:22;;;;;;;8.75;7.55;;;;;;;;;;5055674;28;20052;-76
2023/08/06 08:32:49;;;;;;;8.73;7.20;;;;;;;;;;5055781;28;20044;-76
2023/08/06 08:35:15;;;;;;;8.07;6.47;;;;;;;;;;5071443;28;20024;-76
2023/08/06 08:37:42;;;;;;;8.30;7.07;;;;;;;;;;5055814;28;20068;-76
2023/08/06 08:40:09;;;;;;;7.80;6.45;;;;;;;;;;5055674;28;20443;-76
2023/08/06 08:42:35;;;;;;;8.23;6.90;;;;;;;;;;5055404;28;20025;-76
2023/08/06 08:45:02;;;;;;;7.18;6.47;;;;;;;;;;5055616;28;20025;-76
2023/08/06 08:47:29;;;;;;;6.72;6.03;;;;;;;;;;5055541;28;20016;-77
2023/08/06 08:49:55;;;;;;;8.13;6.40;;;;;;;;;;5055445;28;20499;-76
2023/08/06 08:52:23;;;;;;;6.13;5.47;;;;;;;;;;5055150;28;20404;-77
2023/08/06 08:54:52;;;;;;;7.93;5.63;;;;;;;;;;5055269;28;20029;-76
2023/08/06 08:57:18;;;;;;;;;;;;;;;;;;5055668;28;20052;-76
2023/08/06 08:59:44;;;;;;;7.40;5.35;;;;;;;;;;5055233;28;20007;-77
2023/08/06 09:02:15;;;;;;;6.53;5.53;;;;;;;;;;5055148;28;20059;-76
2023/08/06 09:04:43;;;;;;;6.28;5.50;;;;;;;;;;5055386;28;20025;-76
2023/08/06 09:07:10;;;;;;;7.50;5.53;;;;;;;;;;5054961;28;20605;-77
2023/08/06 09:09:39;;;;;;;5.63;5.07;;;;;;;;;;5054986;28;20020;-76
2023/08/06 09:12:09;;;;;;;5.82;5.13;;;;;;;;;;5054962;28;20452;-76
2023/08/06 09:14:35;;;;;;;5.90;4.07;;;;;;;;;;5055028;28;20033;-77
2023/08/06 09:17:01;;;;;;;6.97;5.10;;;;;;;;;;5034877;28;20037;-77
2023/08/06 09:19:28;;;;;;;7.63;5.38;;;;;;;;;;5047134;28;20053;-76
2023/08/06 09:21:55;;;;;;;5.20;4.40;;;;;;;;;;5054951;28;20021;-76
2023/08/06 09:24:22;;;;;;;5.22;4.72;;;;;;;;;;5054444;28;20018;-76
2023/08/06 09:26:48;;;;;;;5.95;5.03;;;;;;;;;;5036109;28;20108;-76
2023/08/06 09:29:14;;;;;;;5.93;4.28;;;;;;;;;;5034781;28;20108;-77
2023/08/06 09:31:52;;;;;;;5.45;4.38;;;;;;;;;;5034642;28;20460;-77
2023/08/06 09:34:24;;;;;;;4.95;4.35;;;;;;;;;;5049438;28;20036;-77
2023/08/06 09:36:51;;;;;;;4.50;4.07;;;;;;;;;;5054654;28;21643;-76
2023/08/06 09:39:18;;;;;;;5.63;4.05;;;;;;;;;;5054502;28;20028;-76
2023/08/06 09:41:44;;;;;;;3.95;3.55;;;;;;;;;;5054487;28;20033;-76
2023/08/06 09:44:17;;;;;;;3.50;3.20;;;;;;;;;;5054461;28;20407;-77
2023/08/06 09:46:44;;;;;;;5.60;3.40;;;;;;;;;;5054278;28;20021;-77
2023/08/06 09:49:10;;;;;;;4.18;3.13;;;;;;;;;;5054361;28;20375;-77
2023/08/06 09:51:39;;;;;;;3.47;2.85;;;;;;;;;;5054400;28;20025;-77
2023/08/06 09:54:06;;;;;;;3.20;2.50;;;;;;;;;;5051526;28;20017;-77
2023/08/06 09:56:37;;;;;;;3.38;2.28;;;;;;;;;;5054846;28;20045;-77
2023/08/06 09:59:04;;;;;;;2.45;2.10;;;;;;;;;;5057580;28;20021;-77
2023/08/06 10:01:31;;;;;;;3.10;2.35;;;;;;;;;;5054902;28;20082;-77
2023/08/06 10:03:58;;;;;;;2.67;2.40;;;;;;;;;;5053995;28;20017;-77
2023/08/06 10:06:24;;;;;;;4.20;2.30;;;;;;;;;;5053883;28;20656;-76
2023/08/06 10:08:50;;;;;;;3.05;2.30;;;;;;;;;;5048571;28;20021;-77
2023/08/06 10:11:17;;;;;;;2.55;2.30;;;;;;;;;;5033864;28;20018;-77
2023/08/06 10:13:44;;;;;;;4.00;2.47;;;;;;;;;;5032708;28;20463;-76
2023/08/06 10:16:12;;;;;;;3.00;2.20;;;;;;;;;;5033843;28;20064;-77
2023/08/06 10:18:39;;;;;;;2.85;2.03;;;;;;;;;;5032567;28;20034;-77
2023/08/06 10:21:08;;;;;;;3.47;2.42;;;;;;;;;;5033726;28;20033;-77
2023/08/06 10:23:35;;;;;;;2.88;2.38;;;;;;;;;;5033757;28;20108;-77
2023/08/06 10:26:01;;;;;;;3.35;2.40;;;;;;;;;;5033697;28;20026;-77
2023/08/06 10:28:40;;;;;;;2.70;2.40;;;;;;;;;;5034023;28;20112;-77
2023/08/06 10:31:06;;;;;;;3.92;2.30;;;;;;;;;;5047112;28;20021;-77
2023/08/06 10:33:43;;;;;;;3.40;2.17;;;;;;;;;;5046075;28;20077;-76
2023/08/06 10:36:09;;;;;;;3.05;2.10;;;;;;;;;;5053268;28;20131;-77
2023/08/06 10:38:37;;;;;;;2.67;1.77;;;;;;;;;;5053218;28;20527;-77
2023/08/06 10:41:04;;;;;;;3.80;2.20;;;;;;;;;;5053380;28;20017;-76
2023/08/06 10:43:33;;;;;;;2.70;2.30;;;;;;;;;;5053219;28;20464;-77
2023/08/06 10:46:00;;;;;;;3.53;2.60;;;;;;;;;;5053014;28;20020;-76
2023/08/06 10:48:34;;;;;;;7.13;2.28;;;;;;;;;;5053080;28;20056;-76
2023/08/06 10:51:01;;;;;;;5.03;2.95;;;;;;;;;;5053246;28;20499;-76
2023/08/06 10:53:27;;;;;;;2.30;2.10;;;;;;;;;;5053085;28;20021;-76
2023/08/06 10:55:53;;;;;;;3.00;2.30;;;;;;;;;;5052828;28;20036;-77
2023/08/06 10:58:19;;;;;;;4.30;2.33;;;;;;;;;;5052622;28;20029;-76
2023/08/06 11:00:46;;;;;;;3.15;2.50;;;;;;;;;;5052911;28;20032;-76
2023/08/06 11:03:12;;;;;;;3.50;2.85;;;;;;;;;;5053003;28;20460;-77
2023/08/06 11:05:38;;;;;;;2.97;2.65;;;;;;;;;;5053034;28;20040;-76
2023/08/06 11:08:04;;;;;;;3.95;2.78;;;;;;;;;;5053167;28;20013;-76
2023/08/06 11:10:30;;;;;;;4.03;2.85;;;;;;;;;;5053632;28;20079;-77
2023/08/06 11:13:01;;;;;;;3.08;2.60;;;;;;;;;;5053021;28;20033;-77
2023/08/06 11:15:27;;;;;;;3.55;3.20;;;;;;;;;;5053110;28;20108;-77
2023/08/06 11:17:53;;;;;;;2.78;2.58;;;;;;;;;;5052545;28;20108;-77
2023/08/06 11:20:22;;;;;;;3.95;2.50;;;;;;;;;;5052102;28;20412;-77
2023/08/06 11:22:48;;;;;;;3.72;2.60;;;;;;;;;;5052899;28;20044;-76
2023/08/06 11:25:14;;;;;;;4.57;2.78;;;;;;;;;;5052552;28;20048;-77
2023/08/06 11:27:40;;;;;;;5.15;3.08;;;;;;;;;;5032710;28;20084;-77
2023/08/06 11:30:06;;;;;;;3.53;2.88;;;;;;;;;;5032341;28;20025;-77
2023/08/06 11:32:33;;;;;;;8.77;3.03;;;;;;;;;;5032817;28;20018;-77
2023/08/06 11:34:59;;;;;;;3.67;2.17;;;;;;;;;;5051171;28;20150;-77
2023/08/06 11:37:25;;;;;;;4.28;2.75;;;;;;;;;;5052255;28;20450;-76
2023/08/06 11:39:52;;;;;;;4.75;2.70;;;;;;;;;;5052585;28;20025;-77
2023/08/06 11:42:18;;;;;;;5.55;2.83;;;;;;;;;;5052235;28;20021;-77
2023/08/06 11:44:45;;;;;;;4.05;3.25;;;;;;;;;;5052290;28;20017;-77
2023/08/06 11:47:18;;;;;;;4.03;2.72;;;;;;;;;;5052512;28;20028;-77
2023/08/06 11:49:45;;;;;;;4.00;2.63;;;;;;;;;;5052597;28;20029;-76
2023/08/06 11:52:13;;;;;;;4.80;2.88;;;;;;;;;;5052416;28;20028;-77
2023/08/06 11:54:39;;;;;;;3.78;3.38;;;;;;;;;;5052075;28;20651;-77
2023/08/06 11:57:08;;;;;;;3.33;2.80;;;;;;;;;;5052205;28;20072;-77
2023/08/06 11:59:34;;;;;;;2.38;2.05;;;;;;;;;;5054252;28;20009;-77
2023/08/06 12:02:02;;;;;;;2.00;1.75;;;;;;;;;;5053914;28;20074;-76
2023/08/06 12:04:28;;;;;;;3.97;2.60;;;;;;;;;;5047420;28;20021;-77
2023/08/06 12:06:54;;;;;;;3.25;2.95;;;;;;;;;;5056296;28;20028;-77
2023/08/06 12:09:21;;;;;;;3.22;2.20;;;;;;;;;;5056161;28;20021;-77
2023/08/06 12:11:47;;;;;;;3.03;2.67;;;;;;;;;;5056496;28;20029;-77
2023/08/06 12:14:13;;;;;;;5.35;2.88;;;;;;;;;;5055922;28;20028;-77
2023/08/06 12:16:38;;;;;;;2.63;2.40;;;;;;;;;;5055979;28;20036;-77
2023/08/06 12:19:04;;;;;;;2.90;2.28;;;;;;;;;;5055768;28;20106;-77
2023/08/06 12:21:30;;;;;;;3.25;2.65;;;;;;;;;;5055961;28;20025;-77
2023/08/06 12:23:56;;;;;;;2.65;2.08;;;;;;;;;;5055954;28;20029;-77
2023/08/06 12:26:22;;;;;;;6.78;2.80;;;;;;;;;;5055124;28;20025;-77
2023/08/06 12:28:49;;;;;;;2.85;2.13;;;;;;;;;;5055063;28;20029;-77
2023/08/06 12:31:15;;;;;;;2.53;2.10;;;;;;;;;;5055002;28;20017;-76
2023/08/06 12:33:41;;;;;;;2.97;2.22;;;;;;;;;;5054786;28;20436;-77
2023/08/06 12:36:07;;;;;;;4.35;2.35;;;;;;;;;;5054940;28;20039;-77
2023/08/06 12:38:33;;;;;;;2.65;2.25;;;;;;;;;;5054369;28;20021;-77
2023/08/06 12:40:59;;;;;;;3.15;1.80;;;;;;;;;;5055044;28;20527;-77
2023/08/06 12:43:25;;;;;;;3.47;2.50;;;;;;;;;;5055573;28;20032;-77
2023/08/06 12:45:51;;;;;;;2.42;1.77;;;;;;;;;;5055574;28;20032;-77
2023/08/06 12:48:19;;;;;;;4.55;2.17;;;;;;;;;;5055735;28;20075;-77
2023/08/06 12:50:45;;;;;;;4.10;2.03;;;;;;;;;;5055674;28;20025;-77
2023/08/06 12:53:11;;;;;;;2.35;1.73;;;;;;;;;;5055394;28;20025;-77
2023/08/06 12:55:37;;;;;;;5.55;2.20;;;;;;;;;;5055423;28;20032;-77
2023/08/06 12:58:03;;;;;;;3.35;1.98;;;;;;;;;;5055504;28;20033;-77
2023/08/06 13:00:29;;;;;;;2.35;1.60;;;;;;;;;;5055178;28;20369;-77
2023/08/06 13:02:55;;;;;;;3.53;2.33;;;;;;;;;;5055265;28;20527;-77
2023/08/06 13:05:21;;;;;;;2.80;2.10;;;;;;;;;;5055418;28;20462;-77
2023/08/06 13:07:47;;;;;;;4.75;2.08;;;;;;;;;;5055128;28;20032;-76
2023/08/06 13:10:13;;;;;;;2.42;1.73;;;;;;;;;;5054951;28;20043;-77
2023/08/06 13:12:39;;;;;;;1.90;1.52;;;;;;;;;;5054779;28;20059;-77
2023/08/06 13:15:05;;;;;;;2.90;1.98;;;;;;;;;;5054378;28;20555;-77
2023/08/06 13:17:31;;;;;;;2.75;1.92;;;;;;;;;;5054667;28;20671;-77
2023/08/06 13:19:57;;;;;;;2.67;2.00;;;;;;;;;;5053215;28;20103;-75
2023/08/06 13:22:23;;;;;;;2.35;1.80;;;;;;;;;;5054691;28;20036;-76
2023/08/06 13:24:49;;;;;;;2.45;1.90;;;;;;;;;;5037793;28;20025;-76
2023/08/06 13:27:15;;;;;;;3.67;1.85;;;;;;;;;;5034696;28;20029;-76
2023/08/06 13:29:41;;;;;;;2.13;1.50;;;;;;;;;;5051456;28;20472;-76
2023/08/06 13:32:07;;;;;;;1.77;1.38;;;;;;;;;;5045626;28;20029;-76
2023/08/06 13:34:33;;;;;;;1.00;0.90;;;;;;;;;;5050394;28;20463;-76
2023/08/06 13:36:59;;;;;;;1.13;0.77;;;;;;;;;;5054694;28;20037;-75
2023/08/06 13:39:25;;;;;;;1.42;1.10;;;;;;;;;;5033698;28;20377;-76
2023/08/06 13:41:51;;;;;;;1.30;1.20;;;;;;;;;;5034303;28;20052;-76
2023/08/06 13:44:17;;;;;;;2.65;1.50;;;;;;;;;;5051615;28;20021;-76
2023/08/06 13:46:43;;;;;;;2.45;1.55;;;;;;;;;;5052831;28;20029;-76
2023/08/06 13:49:10;;;;;;;2.40;1.45;;;;;;;;;;5054289;28;20092;-76
2023/08/06 13:51:36;;;;;;;2.00;1.45;;;;;;;;;;5054353;28;20028;-76
2023/08/06 13:54:02;;;;;;;3.92;2.15;;;;;;;;;;5054441;28;20025;-76
2023/08/06 13:56:29;;;;;;;1.92;1.25;;;;;;;;;;5054395;28;20041;-76
2023/08/06 13:58:55;;;;;;;1.30;1.20;;;;;;;;;;5054337;28;20025;-76
2023/08/06 14:01:21;;;;;;;2.30;1.50;;;;;;;;;;5054276;28;20029;-76
2023/08/06 14:03:47;;;;;;;2.88;2.00;;;;;;;;;;5054217;28;20083;-76
2023/08/06 14:06:13;;;;;;;2.25;1.92;;;;;;;;;;5054001;28;20025;-76
2023/08/06 14:08:39;;;;;;;1.75;1.58;;;;;;;;;;5054082;28;20145;-76
2023/08/06 14:11:06;;;;;;;2.08;1.77;;;;;;;;;;5053919;28;20025;-76
2023/08/06 14:13:32;;;;;;;1.70;1.30;;;;;;;;;;5053801;28;20532;-75
2023/08/06 14:15:58;;;;;;;2.45;1.73;;;;;;;;;;5053823;28;20393;-76
2023/08/06 14:18:24;;;;;;;3.22;1.75;;;;;;;;;;5053657;28;20032;-75
2023/08/06 14:20:50;;;;;;;1.95;1.75;;;;;;;;;;5052149;28;20041;-75
2023/08/06 14:23:16;;;;;;;2.50;1.55;;;;;;;;;;5053613;28;20032;-75
2023/08/06 14:25:42;;;;;;;2.88;1.77;;;;;;;;;;5053667;28;20021;-75
2023/08/06 14:28:08;;;;;;;3.65;1.67;;;;;;;;;;5053574;28;20021;-75
2023/08/06 14:30:35;;;;;;;3.88;2.08;;;;;;;;;;5053535;28;20074;-75